Time;durP1;ratioP1;P1;durP2;ratioP2;P2;SDS_P1;SDS_P2;PMS_P1;PMS_P2;Temp;Humidity;BMP_temperature;BMP_pressure;BME280_temperature;BME280_humidity;BME280_pressure;Samples;Min_cycle;Max_cycle;Signal;HPM_P1;HPM_P2
2022/05/31 00:02:16;;;;;;;7.53;6.25;;;9.40;99.90;;;;;;4998048;28;20480;-45
2022/05/31 00:04:43;;;;;;;10.55;6.25;;;9.40;99.90;;;;;;4994618;28;20339;-46
2022/05/31 00:07:11;;;;;;;8.55;6.20;;;9.30;99.90;;;;;;5003429;28;20556;-44
2022/05/31 00:09:38;;;;;;;6.30;5.68;;;9.30;99.90;;;;;;5003337;28;20515;-42
2022/05/31 00:12:06;;;;;;;18.27;7.13;;;9.30;99.90;;;;;;4999201;28;20336;-43
2022/05/31 00:14:33;;;;;;;7.88;7.10;;;9.20;99.90;;;;;;4998763;28;20199;-42
2022/05/31 00:17:01;;;;;;;8.63;5.93;;;9.20;99.90;;;;;;4999068;28;20216;-48
2022/05/31 00:19:28;;;;;;;10.00;7.75;;;9.20;99.90;;;;;;4994470;28;20197;-43
2022/05/31 00:22:00;;;;;;;8.10;7.32;;;9.20;99.90;;;;;;4999098;28;20308;-43
2022/05/31 00:24:27;;;;;;;6.63;5.95;;;9.20;99.90;;;;;;4993427;28;20272;-46
2022/05/31 00:26:55;;;;;;;7.03;6.38;;;9.10;99.90;;;;;;4999205;28;20220;-43
2022/05/31 00:29:22;;;;;;;9.25;7.25;;;9.10;99.90;;;;;;4998977;28;20283;-43
2022/05/31 00:31:51;;;;;;;6.70;6.10;;;9.10;99.90;;;;;;4998928;28;20473;-44
2022/05/31 00:34:19;;;;;;;7.75;6.88;;;9.10;99.90;;;;;;4993317;28;20383;-41
2022/05/31 00:36:49;;;;;;;7.18;6.47;;;9.10;99.90;;;;;;4998979;28;20209;-46
2022/05/31 00:39:16;;;;;;;7.45;6.75;;;9.10;99.90;;;;;;4998652;28;20220;-41
2022/05/31 00:41:59;;;;;;;8.30;6.70;;;9.10;99.90;;;;;;4998556;28;20300;-44
2022/05/31 00:44:28;;;;;;;7.57;5.97;;;9.00;99.90;;;;;;4998821;28;20297;-43
2022/05/31 00:47:00;;;;;;;8.32;5.80;;;9.10;99.90;;;;;;4998322;28;20225;-44
2022/05/31 00:49:35;;;;;;;7.95;7.03;;;9.10;99.90;;;;;;4990840;28;20206;-40
2022/05/31 00:52:14;;;;;;;8.32;7.03;;;9.10;99.90;;;;;;4998556;28;20404;-44
2022/05/31 00:55:01;;;;;;;6.43;5.78;;;9.00;99.90;;;;;;4992703;28;20224;-48
2022/05/31 00:57:32;;;;;;;8.35;7.22;;;9.00;99.90;;;;;;4997808;28;20210;-43
2022/05/31 01:00:05;;;;;;;8.07;7.28;;;9.00;99.90;;;;;;4998541;28;20301;-42
2022/05/31 01:02:32;;;;;;;10.23;6.50;;;9.00;99.90;;;;;;4993988;28;20225;-48
2022/05/31 01:05:01;;;;;;;8.20;7.35;;;8.90;99.90;;;;;;4997657;28;20273;-42
2022/05/31 01:07:29;;;;;;;7.15;6.55;;;8.90;99.90;;;;;;4992521;28;20204;-45
2022/05/31 01:09:56;;;;;;;8.63;7.25;;;8.80;99.90;;;;;;4998709;28;20412;-43
2022/05/31 01:12:24;;;;;;;8.70;7.93;;;8.80;99.90;;;;;;5000285;28;20297;-45
2022/05/31 01:14:52;;;;;;;9.38;7.60;;;8.80;99.90;;;;;;5001761;28;20209;-45
2022/05/31 01:17:21;;;;;;;8.18;7.47;;;8.70;99.90;;;;;;5002200;28;20523;-44
2022/05/31 01:19:56;;;;;;;9.88;8.27;;;8.80;99.90;;;;;;5001791;28;20212;-43
2022/05/31 01:22:35;;;;;;;9.20;7.32;;;8.80;99.90;;;;;;5002779;28;20225;-40
2022/05/31 01:25:10;;;;;;;8.45;7.55;;;8.80;99.90;;;;;;5001790;28;20206;-41
2022/05/31 01:27:57;;;;;;;8.68;7.80;;;8.70;99.90;;;;;;5001909;28;20472;-43
2022/05/31 01:30:27;;;;;;;7.88;6.65;;;8.70;99.90;;;;;;5001216;28;20240;-42
2022/05/31 01:33:03;;;;;;;9.38;8.45;;;8.60;99.90;;;;;;5001431;28;20226;-45
2022/05/31 01:35:33;;;;;;;7.80;6.95;;;8.60;99.90;;;;;;4996202;28;20531;-44
2022/05/31 01:38:10;;;;;;;9.57;7.47;;;8.60;99.90;;;;;;4984353;28;20210;-42
2022/05/31 01:41:11;;;;;;;7.68;6.97;;;8.60;99.90;;;;;;4982375;28;20433;-42
2022/05/31 01:43:43;;;;;;;8.43;7.63;;;8.60;99.90;;;;;;4996141;28;20225;-44
2022/05/31 01:46:17;;;;;;;10.60;8.18;;;8.50;99.90;;;;;;5000592;28;20213;-41
2022/05/31 01:48:46;;;;;;;10.32;8.15;;;8.50;99.90;;;;;;4998682;28;21726;-43
2022/05/31 01:51:17;;;;;;;9.60;8.60;;;8.50;99.90;;;;;;4999937;28;20229;-42
2022/05/31 01:53:44;;;;;;;8.63;7.40;;;8.60;99.90;;;;;;4997715;28;20523;-43
2022/05/31 01:56:12;;;;;;;10.30;9.27;;;8.50;99.90;;;;;;5000645;28;20214;-41
2022/05/31 01:58:42;;;;;;;9.32;8.35;;;8.50;99.90;;;;;;4999651;28;20209;-44
2022/05/31 02:01:10;;;;;;;9.55;8.65;;;8.50;99.90;;;;;;5001405;28;20288;-44
2022/05/31 02:03:40;;;;;;;10.90;8.48;;;8.50;99.90;;;;;;5001165;28;20252;-44
2022/05/31 02:06:27;;;;;;;10.30;9.30;;;8.40;99.90;;;;;;4993507;28;20209;-49
2022/05/31 02:08:55;;;;;;;10.43;8.77;;;8.40;99.90;;;;;;5001184;28;20207;-41
2022/05/31 02:11:23;;;;;;;10.27;8.32;;;8.40;99.90;;;;;;5000861;28;20284;-44
2022/05/31 02:13:51;;;;;;;9.07;8.20;;;8.30;99.90;;;;;;5001093;28;20273;-44
2022/05/31 02:16:18;;;;;;;11.85;8.70;;;8.30;99.90;;;;;;5001237;28;20220;-43
2022/05/31 02:21:35;;;;;;;10.00;9.00;;;8.30;99.90;;;;;;5000698;28;20237;-45
2022/05/31 02:24:11;;;;;;;10.68;8.50;;;8.30;99.90;;;;;;4995377;28;20278;-47
2022/05/31 02:26:41;;;;;;;8.70;7.80;;;8.30;99.90;;;;;;4994649;28;20416;-47
2022/05/31 02:29:10;;;;;;;11.60;8.50;;;8.30;99.90;;;;;;5000967;28;20245;-43
2022/05/31 02:31:39;;;;;;;8.77;7.88;;;8.30;99.90;;;;;;5001950;28;20287;-42
2022/05/31 02:34:08;;;;;;;9.13;8.23;;;8.10;99.90;;;;;;5003688;28;20217;-49
2022/05/31 02:36:35;;;;;;;9.98;8.05;;;8.20;99.90;;;;;;4984694;28;20217;-42
2022/05/31 02:39:03;;;;;;;10.00;8.93;;;8.20;99.90;;;;;;5000831;28;20280;-45
2022/05/31 02:41:31;;;;;;;9.60;8.60;;;8.10;99.90;;;;;;5000081;28;20396;-42
2022/05/31 02:43:59;;;;;;;8.98;8.07;;;8.20;99.90;;;;;;5000389;28;20208;-45
2022/05/31 02:46:26;;;;;;;10.77;8.40;;;8.20;99.90;;;;;;5000078;28;20265;-43
2022/05/31 02:48:54;;;;;;;11.98;9.02;;;8.30;99.90;;;;;;5000469;28;20269;-46
2022/05/31 02:51:21;;;;;;;8.07;7.38;;;8.20;99.90;;;;;;5000250;28;20471;-42
2022/05/31 02:53:49;;;;;;;9.75;8.52;;;8.20;99.90;;;;;;4978030;28;20289;-43
2022/05/31 02:56:16;;;;;;;9.90;8.85;;;8.20;99.90;;;;;;4987709;28;20470;-46
2022/05/31 02:58:44;;;;;;;10.10;9.20;;;8.20;99.90;;;;;;4996223;28;20277;-42
2022/05/31 03:01:30;;;;;;;9.27;8.38;;;8.20;99.90;;;;;;4999990;28;20237;-44
2022/05/31 03:03:58;;;;;;;11.60;8.88;;;8.20;99.90;;;;;;4999629;28;20206;-48
2022/05/31 03:06:25;;;;;;;10.77;9.75;;;8.20;99.90;;;;;;4999348;28;20276;-43
2022/05/31 03:08:53;;;;;;;11.07;9.13;;;8.20;99.90;;;;;;4999785;28;20213;-45
2022/05/31 03:11:27;;;;;;;9.95;8.65;;;8.30;99.90;;;;;;5000331;28;20213;-45
2022/05/31 03:14:08;;;;;;;9.20;8.35;;;8.40;99.90;;;;;;5000109;28;20504;-43
2022/05/31 03:16:41;;;;;;;10.20;9.20;;;8.50;99.90;;;;;;4997963;28;20212;-44
2022/05/31 03:19:14;;;;;;;11.00;9.82;;;8.20;99.90;;;;;;4999856;28;20208;-46
2022/05/31 03:21:50;;;;;;;11.27;9.63;;;8.20;99.90;;;;;;5000755;28;20233;-42
2022/05/31 03:24:22;;;;;;;10.88;8.35;;;8.50;99.90;;;;;;5000695;28;20228;-45
2022/05/31 03:26:52;;;;;;;12.85;10.35;;;8.70;99.90;;;;;;5001453;28;20210;-45
2022/05/31 03:29:20;;;;;;;11.88;10.75;;;8.90;99.90;;;;;;4999548;28;20216;-42
2022/05/31 03:31:48;;;;;;;12.18;10.52;;;9.30;99.90;;;;;;5000318;28;20241;-48
2022/05/31 03:34:16;;;;;;;9.45;8.48;;;9.60;99.90;;;;;;5000305;28;20401;-44
2022/05/31 03:36:43;;;;;;;12.38;9.05;;;9.70;99.90;;;;;;4993402;28;20317;-41
2022/05/31 03:39:11;;;;;;;7.78;7.07;;;10.00;99.90;;;;;;5000384;28;20206;-43
2022/05/31 03:41:38;;;;;;;8.65;7.85;;;10.30;99.90;;;;;;5000532;28;20261;-48
2022/05/31 03:44:06;;;;;;;8.10;7.30;;;10.80;99.90;;;;;;5000613;28;20210;-41
2022/05/31 03:46:34;;;;;;;7.82;7.13;;;11.30;99.90;;;;;;5000965;28;20404;-43
2022/05/31 03:49:01;;;;;;;7.60;6.80;;;11.80;99.90;;;;;;5000437;28;20450;-42
2022/05/31 03:51:28;;;;;;;7.35;6.38;;;12.20;99.90;;;;;;5000139;28;20213;-45
2022/05/31 03:53:56;;;;;;;10.95;6.28;;;12.50;99.90;;;;;;4998670;28;20238;-46
2022/05/31 03:56:24;;;;;;;10.05;6.68;;;12.70;99.90;;;;;;4999433;28;20288;-48
2022/05/31 03:58:54;;;;;;;5.78;5.18;;;12.60;99.90;;;;;;4995602;28;20208;-43
2022/05/31 04:01:22;;;;;;;11.25;5.75;;;12.50;99.90;;;;;;4998799;28;20232;-42
2022/05/31 04:03:49;;;;;;;7.90;6.22;;;12.40;99.90;;;;;;4998955;28;20212;-46
2022/05/31 04:06:16;;;;;;;5.75;5.25;;;12.40;99.90;;;;;;5000489;28;20209;-44
2022/05/31 04:08:44;;;;;;;5.80;5.30;;;12.20;99.90;;;;;;5008106;28;20303;-43
2022/05/31 04:11:11;;;;;;;7.30;5.47;;;11.90;99.90;;;;;;4998532;28;20231;-47
2022/05/31 04:13:38;;;;;;;10.27;7.30;;;11.80;99.90;;;;;;4998867;28;20221;-44
2022/05/31 04:16:11;;;;;;;8.05;6.63;;;11.70;99.90;;;;;;4998168;28;20213;-45
2022/05/31 04:18:39;;;;;;;7.20;6.28;;;11.50;99.90;;;;;;4999063;28;20275;-43
2022/05/31 04:21:10;;;;;;;8.27;7.22;;;11.40;99.90;;;;;;5001622;28;20573;-43
2022/05/31 04:26:31;;;;;;;10.23;6.22;;;11.30;99.90;;;;;;4998036;28;20235;-44
2022/05/31 04:28:59;;;;;;;7.22;6.53;;;11.40;99.90;;;;;;4995755;28;20212;-49
2022/05/31 04:31:27;;;;;;;8.13;7.35;;;11.60;99.90;;;;;;4997659;28;20301;-45
2022/05/31 04:33:54;;;;;;;7.35;6.55;;;11.50;99.90;;;;;;4998545;28;20241;-45
2022/05/31 04:36:24;;;;;;;11.40;9.05;;;11.50;99.90;;;;;;4999561;28;20516;-43
2022/05/31 04:38:52;;;;;;;6.25;5.65;;;11.50;99.90;;;;;;4997415;28;20224;-42
2022/05/31 04:41:24;;;;;;;10.25;5.35;;;11.70;99.90;;;;;;5001312;28;20606;-42
2022/05/31 04:43:54;;;;;;;16.73;6.65;;;11.80;99.90;;;;;;5000310;28;20475;-46
2022/05/31 04:46:23;;;;;;;5.68;5.15;;;11.80;99.90;;;;;;4998612;28;20209;-45
2022/05/31 04:48:56;;;;;;;7.85;6.63;;;12.00;99.90;;;;;;4992331;28;20300;-42
2022/05/31 04:51:29;;;;;;;8.68;7.43;;;12.30;99.90;;;;;;4984427;28;20222;-43
2022/05/31 04:53:56;;;;;;;9.45;5.90;;;12.20;99.90;;;;;;4992948;28;20223;-43
2022/05/31 04:56:23;;;;;;;6.85;6.20;;;12.20;99.90;;;;;;5000597;28;20277;-43
2022/05/31 04:58:52;;;;;;;7.85;5.85;;;12.30;99.90;;;;;;4995230;28;20591;-43
2022/05/31 05:01:21;;;;;;;5.75;5.25;;;12.40;99.90;;;;;;4999172;28;20448;-47
2022/05/31 05:03:49;;;;;;;5.45;4.95;;;12.40;99.90;;;;;;5000467;28;20273;-48
2022/05/31 05:06:19;;;;;;;6.78;5.35;;;12.40;99.90;;;;;;5000800;28;20223;-41
2022/05/31 05:08:48;;;;;;;7.22;6.53;;;12.40;99.90;;;;;;5001396;28;20212;-43
2022/05/31 05:11:18;;;;;;;6.13;5.53;;;12.60;99.90;;;;;;5000904;28;20222;-40
2022/05/31 05:13:45;;;;;;;6.82;6.13;;;12.70;99.90;;;;;;5001741;28;20236;-51
2022/05/31 05:16:14;;;;;;;9.10;6.70;;;12.80;99.90;;;;;;5001598;28;20220;-43
2022/05/31 05:18:42;;;;;;;7.97;6.60;;;13.00;99.90;;;;;;5002072;28;20241;-43
2022/05/31 05:21:12;;;;;;;7.65;5.70;;;13.00;99.90;;;;;;5000104;28;20229;-46
2022/05/31 05:23:40;;;;;;;8.10;5.68;;;12.90;99.90;;;;;;5001533;28;20213;-45
2022/05/31 05:26:09;;;;;;;6.45;5.85;;;13.10;99.90;;;;;;5001655;28;20206;-48
2022/05/31 05:31:31;;;;;;;6.05;5.47;;;13.20;99.90;;;;;;5000510;28;20957;-44
2022/05/31 05:34:00;;;;;;;6.68;6.07;;;13.50;99.90;;;;;;5001550;28;20212;-50
2022/05/31 05:36:28;;;;;;;9.07;7.82;;;13.60;99.90;;;;;;4999521;28;20572;-43
2022/05/31 05:38:56;;;;;;;6.63;6.03;;;13.70;99.90;;;;;;5001391;28;20213;-45
2022/05/31 05:41:25;;;;;;;7.95;7.15;;;13.90;99.90;;;;;;5000949;28;20233;-45
2022/05/31 05:43:52;;;;;;;7.43;6.72;;;14.10;99.90;;;;;;5000241;28;20396;-48
2022/05/31 05:46:23;;;;;;;7.28;6.68;;;14.00;99.90;;;;;;5001087;28;20256;-42
2022/05/31 05:48:51;;;;;;;8.10;6.10;;;14.10;99.90;;;;;;5001059;28;20210;-44
2022/05/31 05:51:24;;;;;;;7.78;7.10;;;14.30;99.90;;;;;;5000659;28;20739;-44
2022/05/31 05:53:52;;;;;;;6.45;5.95;;;14.60;99.90;;;;;;5001860;28;20206;-43
2022/05/31 05:56:20;;;;;;;7.07;6.35;;;14.90;99.90;;;;;;5000963;28;20213;-42
2022/05/31 05:58:49;;;;;;;5.90;4.80;;;15.00;99.90;;;;;;4997857;28;20229;-45
2022/05/31 06:01:22;;;;;;;5.35;4.85;;;15.10;99.90;;;;;;5001051;28;20233;-43
2022/05/31 06:04:13;;;;;;;5.50;5.00;;;15.00;99.90;;;;;;5001613;28;20434;-44
2022/05/31 06:06:42;;;;;;;6.20;5.60;;;15.30;99.90;;;;;;4994471;28;20471;-41
2022/05/31 06:09:15;;;;;;;5.28;4.65;;;15.40;99.90;;;;;;5001360;28;20205;-44
2022/05/31 06:11:54;;;;;;;5.40;4.90;;;15.60;99.90;;;;;;5001088;28;20565;-41
2022/05/31 06:14:44;;;;;;;6.50;4.60;;;15.80;99.90;;;;;;5000335;28;20212;-42
2022/05/31 06:17:17;;;;;;;15.03;6.60;;;16.20;99.90;;;;;;5000433;28;20458;-43
2022/05/31 06:19:47;;;;;;;8.33;5.30;;;16.40;99.90;;;;;;5001934;28;20437;-43
2022/05/31 06:22:14;;;;;;;6.17;5.57;;;16.80;99.90;;;;;;5000300;28;20874;-49
2022/05/31 06:24:42;;;;;;;5.77;4.60;;;17.90;99.90;;;;;;5001766;28;20508;-43
2022/05/31 06:27:11;;;;;;;4.97;4.50;;;18.70;99.90;;;;;;5000254;28;20458;-47
2022/05/31 06:29:38;;;;;;;5.03;4.60;;;18.90;99.90;;;;;;5000613;28;20445;-43
2022/05/31 06:32:05;;;;;;;9.77;6.30;;;18.90;99.90;;;;;;5001471;28;20501;-41
2022/05/31 06:34:33;;;;;;;5.20;4.80;;;19.10;99.90;;;;;;5001118;28;20621;-47
2022/05/31 06:37:06;;;;;;;5.20;4.70;;;19.80;99.90;;;;;;5000427;28;20418;-44
2022/05/31 06:39:35;;;;;;;4.30;3.97;;;20.50;99.90;;;;;;4997926;28;20413;-46
2022/05/31 06:42:04;;;;;;;4.40;3.70;;;20.40;99.90;;;;;;5000332;28;20660;-47
2022/05/31 06:44:36;;;;;;;5.47;4.87;;;20.20;99.90;;;;;;4999677;28;20417;-46
2022/05/31 06:47:04;;;;;;;3.33;3.03;;;19.70;99.90;;;;;;5000206;28;20424;-47
2022/05/31 06:49:34;;;;;;;4.00;3.30;;;19.50;99.90;;;;;;4999060;28;20418;-46
2022/05/31 06:57:37;;;;;;;3.80;3.43;;;22.10;98.10;;;;;;4989873;28;20441;-49
2022/05/31 07:00:09;;;;;;;2.10;1.90;;;23.60;93.20;;;;;;4999403;28;20667;-49
2022/05/31 07:02:36;;;;;;;3.73;2.87;;;23.80;90.20;;;;;;4999639;28;20457;-47
2022/05/31 07:05:04;;;;;;;5.07;3.17;;;23.60;90.30;;;;;;4999408;28;20448;-50
2022/05/31 07:07:34;;;;;;;7.73;3.30;;;23.70;89.30;;;;;;4999549;28;20418;-42
2022/05/31 07:10:01;;;;;;;2.70;2.50;;;24.30;88.50;;;;;;4999764;28;20443;-45
2022/05/31 07:12:28;;;;;;;2.63;2.43;;;26.90;80.30;;;;;;4997797;28;20476;-47
2022/05/31 07:14:56;;;;;;;2.30;2.10;;;29.80;68.80;;;;;;4999667;28;20636;-46
2022/05/31 07:17:23;;;;;;;5.10;2.27;;;31.40;60.00;;;;;;4998964;28;20443;-42
2022/05/31 07:19:50;;;;;;;2.57;2.37;;;30.50;58.00;;;;;;4999906;28;20526;-47
2022/05/31 07:22:34;;;;;;;4.73;2.30;;;30.10;58.30;;;;;;4996907;28;20472;-41
2022/05/31 07:25:02;;;;;;;2.70;2.30;;;29.80;58.80;;;;;;4999406;28;20668;-50
2022/05/31 07:27:29;;;;;;;5.23;2.27;;;30.50;57.70;;;;;;4998773;28;20454;-44
2022/05/31 07:29:57;;;;;;;2.30;2.10;;;29.90;57.80;;;;;;4999541;28;20755;-52
2022/05/31 07:32:25;;;;;;;2.40;2.20;;;29.70;57.70;;;;;;4998834;28;20459;-44
2022/05/31 07:35:12;;;;;;;2.43;2.17;;;31.80;55.20;;;;;;4998867;28;20462;-46
2022/05/31 07:37:39;;;;;;;2.97;2.60;;;32.00;53.50;;;;;;4998976;28;21011;-43
2022/05/31 07:40:07;;;;;;;1.97;1.73;;;31.00;54.80;;;;;;4998596;28;20447;-52
2022/05/31 07:42:34;;;;;;;2.30;2.10;;;31.30;53.40;;;;;;4999349;28;20695;-49
2022/05/31 07:45:02;;;;;;;2.57;2.37;;;32.30;52.90;;;;;;4998759;28;20445;-48
2022/05/31 07:47:33;;;;;;;3.53;3.20;;;33.80;51.40;;;;;;4998864;28;20437;-42
2022/05/31 07:50:00;;;;;;;2.43;2.30;;;34.70;50.70;;;;;;4998889;28;20438;-45
2022/05/31 07:52:27;;;;;;;2.93;2.70;;;35.80;49.10;;;;;;4990967;28;20705;-47
2022/05/31 07:54:55;;;;;;;1.73;1.63;;;35.10;49.00;;;;;;4998464;28;20511;-48
2022/05/31 08:00:08;;;;;;;11.03;2.20;;;37.90;45.40;;;;;;4998626;28;20497;-46
2022/05/31 08:02:35;;;;;;;2.33;1.73;;;37.10;45.50;;;;;;4998786;28;20486;-50
2022/05/31 08:05:03;;;;;;;1.70;1.60;;;35.40;46.50;;;;;;4998078;28;20449;-45
2022/05/31 08:07:30;;;;;;;2.40;2.20;;;35.50;46.20;;;;;;4998418;28;20450;-44
2022/05/31 08:09:57;;;;;;;2.83;2.40;;;35.90;46.40;;;;;;4998784;28;20515;-47
2022/05/31 08:12:25;;;;;;;2.40;2.30;;;35.00;46.20;;;;;;4997823;28;20743;-51
2022/05/31 08:14:52;;;;;;;1.77;1.67;;;34.30;46.60;;;;;;4999136;28;20491;-47
2022/05/31 08:17:20;;;;;;;8.40;2.60;;;35.40;45.80;;;;;;4998405;28;20483;-44
2022/05/31 08:19:47;;;;;;;2.40;2.20;;;35.20;46.10;;;;;;4998851;28;20459;-50
2022/05/31 08:22:15;;;;;;;2.87;2.67;;;35.30;45.60;;;;;;4997733;28;20485;-47
2022/05/31 08:24:42;;;;;;;2.10;2.00;;;36.50;43.60;;;;;;4998548;28;20447;-46
2022/05/31 08:27:12;;;;;;;2.80;1.90;;;34.50;45.40;;;;;;4998322;28;20522;-47
2022/05/31 08:29:40;;;;;;;1.80;1.70;;;33.00;47.30;;;;;;4992301;28;20517;-44
2022/05/31 08:32:08;;;;;;;2.60;2.20;;;33.40;46.00;;;;;;4998632;28;20494;-46
2022/05/31 08:34:35;;;;;;;2.33;2.17;;;32.80;47.60;;;;;;4998369;28;20652;-46
2022/05/31 08:37:03;;;;;;;2.20;2.00;;;32.80;47.60;;;;;;4998613;28;20450;-47
2022/05/31 08:39:30;;;;;;;2.40;2.20;;;33.70;46.40;;;;;;4998656;28;20558;-45
2022/05/31 08:42:09;;;;;;;2.80;2.00;;;36.10;44.30;;;;;;4998761;28;20569;-48
2022/05/31 08:45:22;;;;;;;3.93;2.17;;;37.40;42.70;;;;;;4995593;28;20439;-48
2022/05/31 08:48:02;;;;;;;3.87;3.63;;;37.40;42.30;;;;;;4957449;28;20461;-47
2022/05/31 08:56:57;;;;;;;2.60;2.40;;;35.80;43.40;;;;;;4995963;28;20450;-46
2022/05/31 08:59:30;;;;;;;4.30;1.90;;;33.60;45.40;;;;;;4997957;28;20443;-45
2022/05/31 09:02:02;;;;;;;9.90;3.10;;;32.10;47.20;;;;;;4997971;28;20869;-47
2022/05/31 09:04:43;;;;;;;2.57;2.17;;;31.50;47.80;;;;;;4990226;28;20470;-47
2022/05/31 09:07:20;;;;;;;1.70;1.60;;;33.40;46.50;;;;;;4996170;28;20466;-42
2022/05/31 09:10:24;;;;;;;1.63;1.53;;;34.90;44.20;;;;;;4996798;28;20485;-48
2022/05/31 09:13:00;;;;;;;2.03;1.60;;;34.90;42.50;;;;;;4992498;28;20538;-52
2022/05/31 09:15:39;;;;;;;1.97;1.87;;;36.00;42.30;;;;;;4996287;28;20514;-49
2022/05/31 09:18:16;;;;;;;2.30;2.07;;;36.00;42.10;;;;;;4999768;28;20477;-48
2022/05/31 09:21:01;;;;;;;3.83;1.90;;;36.20;42.90;;;;;;4997160;28;20473;-43
2022/05/31 09:23:35;;;;;;;1.70;1.60;;;35.20;42.70;;;;;;4995333;28;20490;-42
2022/05/31 09:26:08;;;;;;;2.30;2.10;;;34.50;43.10;;;;;;4996251;28;20511;-44
2022/05/31 09:28:57;;;;;;;4.03;3.13;;;33.30;44.30;;;;;;4996215;28;20507;-47
2022/05/31 09:31:24;;;;;;;1.67;1.57;;;33.30;45.30;;;;;;4995725;28;20435;-46
2022/05/31 09:34:24;;;;;;;2.30;1.53;;;32.00;45.90;;;;;;4996727;28;20461;-48
2022/05/31 09:37:30;;;;;;;1.83;1.60;;;29.90;48.60;;;;;;4964869;28;20530;-48
2022/05/31 09:40:18;;;;;;;2.80;2.30;;;27.30;52.90;;;;;;4961976;28;20451;-45
2022/05/31 09:43:10;;;;;;;3.00;2.20;;;24.90;56.40;;;;;;4995983;28;20492;-47
2022/05/31 09:46:01;;;;;;;1.53;1.43;;;24.30;58.40;;;;;;4993335;28;20494;-44
2022/05/31 09:48:29;;;;;;;2.40;1.70;;;24.20;59.00;;;;;;4983935;28;20512;-48
2022/05/31 09:51:18;;;;;;;3.37;2.67;;;23.80;59.50;;;;;;4999666;28;20829;-44
2022/05/31 09:59:25;;;;;;;1.40;1.30;;;22.40;64.10;;;;;;4999700;28;20444;-45
2022/05/31 10:01:53;;;;;;;2.07;1.97;;;22.00;65.40;;;;;;4999013;28;20556;-44
2022/05/31 10:04:24;;;;;;;2.40;1.43;;;21.70;66.10;;;;;;4998690;28;20511;-45
2022/05/31 10:07:01;;;;;;;1.53;1.43;;;21.50;66.20;;;;;;4998847;28;20447;-42
2022/05/31 10:09:38;;;;;;;1.87;1.63;;;22.00;65.00;;;;;;4991596;28;20449;-46
2022/05/31 10:12:13;;;;;;;1.47;1.30;;;22.10;64.30;;;;;;4981778;28;20526;-44
2022/05/31 10:14:47;;;;;;;4.13;1.40;;;22.90;63.70;;;;;;5009005;28;20769;-44
2022/05/31 10:17:43;;;;;;;2.13;1.93;;;23.70;62.90;;;;;;5003177;28;20482;-50
2022/05/31 10:20:21;;;;;;;4.13;2.40;;;24.20;60.40;;;;;;4999101;28;20698;-48
2022/05/31 10:22:58;;;;;;;2.50;1.63;;;24.60;60.30;;;;;;4998706;28;20684;-46
2022/05/31 10:25:39;;;;;;;1.93;1.77;;;24.80;59.00;;;;;;4998812;28;20463;-45
2022/05/31 10:28:25;;;;;;;2.47;1.20;;;24.70;58.70;;;;;;4995919;28;20818;-42
2022/05/31 10:31:04;;;;;;;1.93;1.83;;;23.90;60.20;;;;;;4998757;28;20796;-43
2022/05/31 10:33:32;;;;;;;1.50;1.40;;;23.80;60.50;;;;;;4996542;28;20459;-46
2022/05/31 10:36:20;;;;;;;3.00;1.63;;;24.00;60.30;;;;;;4998944;28;20443;-45
2022/05/31 10:38:49;;;;;;;1.77;1.67;;;24.00;60.30;;;;;;4993824;28;20418;-48
2022/05/31 10:41:32;;;;;;;1.70;1.60;;;24.10;60.60;;;;;;4999040;28;20488;-44
2022/05/31 10:44:45;;;;;;;6.03;1.63;;;22.90;62.50;;;;;;4999298;28;20498;-45
2022/05/31 10:47:15;;;;;;;1.60;1.50;;;22.50;64.00;;;;;;4998663;28;20462;-43
2022/05/31 10:49:45;;;;;;;2.10;1.93;;;22.40;65.80;;;;;;4998599;28;20516;-49
2022/05/31 10:52:36;;;;;;;1.83;1.70;;;22.40;66.40;;;;;;4997994;28;20521;-45
2022/05/31 10:55:28;;;;;;;1.80;1.70;;;22.40;64.70;;;;;;4998503;28;20442;-43
2022/05/31 10:58:11;;;;;;;2.00;1.83;;;22.60;64.70;;;;;;4995581;28;20457;-45
2022/05/31 11:00:57;;;;;;;7.40;1.70;;;22.70;65.70;;;;;;4997792;28;20420;-45
2022/05/31 11:03:33;;;;;;;3.50;3.20;;;23.20;64.60;;;;;;4998452;28;20594;-42
2022/05/31 11:06:00;;;;;;;1.63;1.53;;;23.60;63.80;;;;;;4994328;28;20454;-43
2022/05/31 11:11:53;;;;;;;1.50;1.40;;;24.40;62.80;;;;;;4991669;28;20470;-45
2022/05/31 11:14:45;;;;;;;1.63;1.53;;;24.10;62.00;;;;;;4998246;28;20461;-46
2022/05/31 11:17:49;;;;;;;1.93;1.70;;;23.60;63.40;;;;;;4997950;28;20446;-43
2022/05/31 11:20:23;;;;;;;2.50;2.30;;;22.90;64.40;;;;;;4997963;28;20705;-45
2022/05/31 11:23:31;;;;;;;1.90;1.77;;;22.20;66.90;;;;;;4993106;28;20486;-47
2022/05/31 11:26:24;;;;;;;1.97;1.87;;;22.00;68.50;;;;;;4997523;28;20420;-43
2022/05/31 11:29:52;;;;;;;2.40;2.20;;;22.30;68.60;;;;;;4995483;28;20443;-48
2022/05/31 11:32:42;;;;;;;1.80;1.70;;;22.90;68.70;;;;;;4997455;28;20645;-51
2022/05/31 11:35:31;;;;;;;1.77;1.67;;;23.20;65.80;;;;;;4995280;28;20510;-43
2022/05/31 11:38:18;;;;;;;2.90;2.00;;;23.40;66.70;;;;;;4997661;28;20435;-46
2022/05/31 11:41:23;;;;;;;1.93;1.80;;;23.50;66.70;;;;;;4992189;28;20425;-45
2022/05/31 11:44:12;;;;;;;2.20;1.23;;;22.90;66.40;;;;;;4997679;28;20486;-44
2022/05/31 11:46:50;;;;;;;2.07;1.90;;;22.70;67.70;;;;;;4991368;28;20598;-45
2022/05/31 11:49:40;;;;;;;2.13;1.60;;;22.60;67.40;;;;;;4997608;28;20546;-45
2022/05/31 11:52:21;;;;;;;1.77;1.67;;;22.70;67.00;;;;;;4977374;28;20686;-48
2022/05/31 11:57:49;;;;;;;1.60;1.50;;;23.20;67.30;;;;;;4987681;28;20470;-46
2022/05/31 12:00:20;;;;;;;1.83;1.60;;;23.60;65.90;;;;;;4997333;28;20414;-44
2022/05/31 12:02:55;;;;;;;5.03;1.97;;;23.70;66.10;;;;;;4996935;28;20468;-45
2022/05/31 12:05:34;;;;;;;5.30;2.80;;;24.40;65.60;;;;;;4996623;28;20439;-46
2022/05/31 12:08:34;;;;;;;2.23;2.03;;;24.70;65.30;;;;;;4996886;28;20454;-44
2022/05/31 12:11:11;;;;;;;3.87;1.93;;;24.60;62.70;;;;;;4993660;28;20494;-42
2022/05/31 12:13:44;;;;;;;1.93;1.80;;;24.10;64.70;;;;;;4997251;28;20885;-47
2022/05/31 12:16:13;;;;;;;1.80;1.70;;;23.70;65.60;;;;;;4999817;28;20440;-46
2022/05/31 12:18:49;;;;;;;2.37;2.27;;;23.80;66.20;;;;;;5000898;28;20462;-48
2022/05/31 12:21:23;;;;;;;8.97;2.60;;;24.20;67.00;;;;;;4997430;28;20769;-42
2022/05/31 12:24:05;;;;;;;6.40;1.80;;;24.60;64.90;;;;;;4997038;28;20683;-45
2022/05/31 12:26:45;;;;;;;3.30;2.80;;;25.00;63.30;;;;;;4992409;28;20444;-49
2022/05/31 12:29:28;;;;;;;3.10;2.47;;;25.40;63.00;;;;;;4996345;28;20515;-44
2022/05/31 12:32:20;;;;;;;2.63;1.90;;;25.40;62.20;;;;;;4997372;28;20471;-50
2022/05/31 12:34:49;;;;;;;2.50;1.50;;;25.20;62.70;;;;;;4991506;28;20517;-44
2022/05/31 12:37:17;;;;;;;1.63;1.53;;;24.70;64.60;;;;;;4996786;28;20538;-43
2022/05/31 12:39:46;;;;;;;3.63;2.43;;;24.40;64.90;;;;;;4996700;28;20479;-41
2022/05/31 12:42:14;;;;;;;2.47;1.90;;;24.40;65.90;;;;;;4996125;28;20518;-44
2022/05/31 12:44:47;;;;;;;3.67;2.83;;;24.00;64.80;;;;;;4997366;28;20487;-46
2022/05/31 12:47:33;;;;;;;1.70;1.60;;;24.00;66.00;;;;;;4996953;28;20870;-45
2022/05/31 12:50:04;;;;;;;2.20;1.70;;;24.30;66.60;;;;;;4997234;28;20520;-47
2022/05/31 12:55:34;;;;;;;3.03;2.20;;;24.40;65.70;;;;;;4996787;28;20683;-48
2022/05/31 13:01:13;;;;;;;3.63;1.90;;;24.50;65.30;;;;;;4992618;28;20439;-46
2022/05/31 13:03:43;;;;;;;2.40;2.20;;;24.10;67.20;;;;;;4996374;28;20854;-47
2022/05/31 13:06:29;;;;;;;3.00;2.20;;;24.20;67.20;;;;;;4995875;28;20845;-43
2022/05/31 13:09:33;;;;;;;3.43;1.70;;;24.30;66.20;;;;;;4999025;28;20443;-44
2022/05/31 13:20:39;;;;;;;1.57;1.47;;;23.40;68.90;;;;;;5000322;28;20444;-43
2022/05/31 13:23:07;;;;;;;2.10;2.00;;;23.40;68.50;;;;;;4989238;28;20510;-44
2022/05/31 13:26:00;;;;;;;2.50;1.90;;;23.50;68.40;;;;;;4994516;28;20778;-45
2022/05/31 13:29:09;;;;;;;1.40;1.30;;;23.50;69.20;;;;;;4985015;28;20484;-44
2022/05/31 13:31:52;;;;;;;2.53;1.50;;;23.90;67.90;;;;;;4980621;28;20432;-42
2022/05/31 13:34:36;;;;;;;9.83;2.00;;;24.10;67.90;;;;;;4963255;28;20802;-45
2022/05/31 13:37:16;;;;;;;1.70;1.60;;;24.20;67.00;;;;;;4985462;28;20791;-48
2022/05/31 13:39:45;;;;;;;2.03;1.93;;;24.40;67.10;;;;;;4997348;28;20438;-42
2022/05/31 13:42:36;;;;;;;3.53;1.80;;;24.20;66.50;;;;;;4993825;28;20464;-44
2022/05/31 13:45:12;;;;;;;2.53;2.33;;;23.60;69.30;;;;;;5001935;28;20547;-47
2022/05/31 13:47:58;;;;;;;2.43;1.80;;;23.30;69.90;;;;;;5003659;28;20420;-45
2022/05/31 13:50:38;;;;;;;1.60;1.50;;;23.40;70.20;;;;;;5004514;28;20828;-45
2022/05/31 13:53:09;;;;;;;1.80;1.70;;;23.40;68.80;;;;;;4991409;28;20519;-42
2022/05/31 13:55:37;;;;;;;1.77;1.63;;;23.40;69.10;;;;;;5003371;28;20445;-46
2022/05/31 13:58:13;;;;;;;2.67;2.20;;;23.40;68.60;;;;;;4997019;28;20611;-46
2022/05/31 14:00:41;;;;;;;2.10;1.90;;;23.30;68.20;;;;;;5007654;28;20440;-44
2022/05/31 14:03:19;;;;;;;1.43;1.33;;;23.20;69.10;;;;;;5007714;28;20552;-48
2022/05/31 14:06:15;;;;;;;4.60;2.13;;;23.20;68.70;;;;;;5008348;28;20512;-46
2022/05/31 14:08:49;;;;;;;2.00;1.70;;;23.20;69.70;;;;;;4995292;28;20620;-46
2022/05/31 14:11:32;;;;;;;1.40;1.30;;;23.10;69.60;;;;;;4999505;28;20447;-44
2022/05/31 14:14:13;;;;;;;2.60;1.47;;;22.90;69.70;;;;;;4999407;28;20505;-47